sensor_id;sensor_type;location;lat;lon;timestamp;temperature;humidity
72440;DHT22;60446;50.752;4.352;2023-12-07T00:00:07;2.10;99.90
72440;DHT22;60446;50.752;4.352;2023-12-07T00:02:35;2.20;99.90
72440;DHT22;60446;50.752;4.352;2023-12-07T00:05:02;2.10;99.90
72440;DHT22;60446;50.752;4.352;2023-12-07T00:07:30;2.20;99.90
72440;DHT22;60446;50.752;4.352;2023-12-07T00:09:57;2.20;99.90
72440;DHT22;60446;50.752;4.352;2023-12-07T00:12:25;2.20;99.90
72440;DHT22;60446;50.752;4.352;2023-12-07T00:14:52;2.20;99.90
72440;DHT22;60446;50.752;4.352;2023-12-07T00:17:20;2.20;99.90
72440;DHT22;60446;50.752;4.352;2023-12-07T00:19:47;2.30;99.90
72440;DHT22;60446;50.752;4.352;2023-12-07T00:22:14;2.30;99.90
72440;DHT22;60446;50.752;4.352;2023-12-07T00:24:41;2.30;99.90
72440;DHT22;60446;50.752;4.352;2023-12-07T00:27:08;2.30;99.90
72440;DHT22;60446;50.752;4.352;2023-12-07T00:29:37;2.30;99.90
72440;DHT22;60446;50.752;4.352;2023-12-07T00:32:05;2.30;99.90
72440;DHT22;60446;50.752;4.352;2023-12-07T00:34:32;2.20;99.90
72440;DHT22;60446;50.752;4.352;2023-12-07T00:37:00;2.10;99.90
72440;DHT22;60446;50.752;4.352;2023-12-07T00:39:27;2.10;99.90
72440;DHT22;60446;50.752;4.352;2023-12-07T00:41:54;2.10;99.90
72440;DHT22;60446;50.752;4.352;2023-12-07T00:44:21;2.10;99.90
72440;DHT22;60446;50.752;4.352;2023-12-07T00:46:49;2.20;99.90
72440;DHT22;60446;50.752;4.352;2023-12-07T00:49:16;2.20;99.90
72440;DHT22;60446;50.752;4.352;2023-12-07T00:51:43;2.30;99.90
72440;DHT22;60446;50.752;4.352;2023-12-07T00:54:10;2.20;99.90
72440;DHT22;60446;50.752;4.352;2023-12-07T00:56:38;2.00;99.90
72440;DHT22;60446;50.752;4.352;2023-12-07T00:59:05;2.00;99.90
72440;DHT22;60446;50.752;4.352;2023-12-07T01:01:32;2.00;99.90
72440;DHT22;60446;50.752;4.352;2023-12-07T01:03:59;1.90;99.90
72440;DHT22;60446;50.752;4.352;2023-12-07T01:06:27;1.90;99.90
72440;DHT22;60446;50.752;4.352;2023-12-07T01:08:55;1.80;99.90
72440;DHT22;60446;50.752;4.352;2023-12-07T01:11:22;1.80;99.90
72440;DHT22;60446;50.752;4.352;2023-12-07T01:13:49;1.80;99.90
72440;DHT22;60446;50.752;4.352;2023-12-07T01:16:16;1.90;99.90
72440;DHT22;60446;50.752;4.352;2023-12-07T01:18:44;1.90;99.90
72440;DHT22;60446;50.752;4.352;2023-12-07T01:21:11;1.90;99.90
72440;DHT22;60446;50.752;4.352;2023-12-07T01:23:39;2.00;99.90
72440;DHT22;60446;50.752;4.352;2023-12-07T01:26:06;2.00;99.90
72440;DHT22;60446;50.752;4.352;2023-12-07T01:28:34;2.00;99.90
72440;DHT22;60446;50.752;4.352;2023-12-07T01:31:01;1.90;99.90
72440;DHT22;60446;50.752;4.352;2023-12-07T01:33:28;1.90;99.90
72440;DHT22;60446;50.752;4.352;2023-12-07T01:35:56;1.90;99.90
72440;DHT22;60446;50.752;4.352;2023-12-07T01:38:23;1.90;99.90
72440;DHT22;60446;50.752;4.352;2023-12-07T01:40:50;1.90;99.90
72440;DHT22;60446;50.752;4.352;2023-12-07T01:43:19;1.90;99.90
72440;DHT22;60446;50.752;4.352;2023-12-07T01:45:47;1.90;99.90
72440;DHT22;60446;50.752;4.352;2023-12-07T01:48:15;1.80;99.90
72440;DHT22;60446;50.752;4.352;2023-12-07T01:50:42;1.90;99.90
72440;DHT22;60446;50.752;4.352;2023-12-07T01:53:10;1.90;99.90
72440;DHT22;60446;50.752;4.352;2023-12-07T01:55:39;2.00;99.90
72440;DHT22;60446;50.752;4.352;2023-12-07T01:58:07;1.90;99.90
72440;DHT22;60446;50.752;4.352;2023-12-07T02:00:34;1.90;99.90
72440;DHT22;60446;50.752;4.352;2023-12-07T02:03:05;2.00;99.90
72440;DHT22;60446;50.752;4.352;2023-12-07T02:05:33;2.00;99.90
72440;DHT22;60446;50.752;4.352;2023-12-07T02:08:01;2.00;99.90
72440;DHT22;60446;50.752;4.352;2023-12-07T02:10:28;2.00;99.90
72440;DHT22;60446;50.752;4.352;2023-12-07T02:12:55;2.00;99.90
72440;DHT22;60446;50.752;4.352;2023-12-07T02:15:23;2.00;99.90
72440;DHT22;60446;50.752;4.352;2023-12-07T02:18:05;2.10;99.90
72440;DHT22;60446;50.752;4.352;2023-12-07T02:20:44;2.10;99.90
72440;DHT22;60446;50.752;4.352;2023-12-07T02:23:17;2.10;99.90
72440;DHT22;60446;50.752;4.352;2023-12-07T02:26:04;2.00;99.90
72440;DHT22;60446;50.752;4.352;2023-12-07T02:28:33;2.10;99.90
72440;DHT22;60446;50.752;4.352;2023-12-07T02:31:00;2.10;99.90
72440;DHT22;60446;50.752;4.352;2023-12-07T02:33:27;2.10;99.90
72440;DHT22;60446;50.752;4.352;2023-12-07T02:35:55;2.10;99.90
72440;DHT22;60446;50.752;4.352;2023-12-07T02:38:26;2.20;99.90
72440;DHT22;60446;50.752;4.352;2023-12-07T02:40:54;2.20;99.90
72440;DHT22;60446;50.752;4.352;2023-12-07T02:43:22;2.10;99.90
72440;DHT22;60446;50.752;4.352;2023-12-07T02:45:49;2.20;99.90
72440;DHT22;60446;50.752;4.352;2023-12-07T02:48:16;2.20;99.90
72440;DHT22;60446;50.752;4.352;2023-12-07T02:50:44;2.10;99.90
72440;DHT22;60446;50.752;4.352;2023-12-07T02:53:12;2.10;99.90
72440;DHT22;60446;50.752;4.352;2023-12-07T02:55:39;2.00;99.90
72440;DHT22;60446;50.752;4.352;2023-12-07T02:58:06;2.00;99.90
72440;DHT22;60446;50.752;4.352;2023-12-07T03:00:34;2.00;99.90
72440;DHT22;60446;50.752;4.352;2023-12-07T03:03:01;2.00;99.90
72440;DHT22;60446;50.752;4.352;2023-12-07T03:05:28;2.00;99.90
72440;DHT22;60446;50.752;4.352;2023-12-07T03:07:56;2.00;99.90
72440;DHT22;60446;50.752;4.352;2023-12-07T03:10:23;2.10;99.90
72440;DHT22;60446;50.752;4.352;2023-12-07T03:12:50;2.10;99.90
72440;DHT22;60446;50.752;4.352;2023-12-07T03:15:17;2.10;99.90
72440;DHT22;60446;50.752;4.352;2023-12-07T03:17:45;2.10;99.90
72440;DHT22;60446;50.752;4.352;2023-12-07T03:20:12;2.10;99.90
72440;DHT22;60446;50.752;4.352;2023-12-07T03:22:40;2.00;99.90
72440;DHT22;60446;50.752;4.352;2023-12-07T03:25:08;2.10;99.90
72440;DHT22;60446;50.752;4.352;2023-12-07T03:27:35;2.10;99.90
72440;DHT22;60446;50.752;4.352;2023-12-07T03:30:03;2.10;99.90
72440;DHT22;60446;50.752;4.352;2023-12-07T03:32:30;2.10;99.90
72440;DHT22;60446;50.752;4.352;2023-12-07T03:34:58;2.10;99.90
72440;DHT22;60446;50.752;4.352;2023-12-07T03:37:25;2.20;99.90
72440;DHT22;60446;50.752;4.352;2023-12-07T03:39:52;2.20;99.90
72440;DHT22;60446;50.752;4.352;2023-12-07T03:42:19;2.10;99.90
72440;DHT22;60446;50.752;4.352;2023-12-07T03:45:07;2.10;99.90
72440;DHT22;60446;50.752;4.352;2023-12-07T03:47:34;2.00;99.90
72440;DHT22;60446;50.752;4.352;2023-12-07T03:50:01;2.00;99.90
72440;DHT22;60446;50.752;4.352;2023-12-07T03:52:29;2.00;99.90
72440;DHT22;60446;50.752;4.352;2023-12-07T03:54:56;2.10;99.90
72440;DHT22;60446;50.752;4.352;2023-12-07T03:57:23;2.10;99.90
72440;DHT22;60446;50.752;4.352;2023-12-07T03:59:50;2.10;99.90
72440;DHT22;60446;50.752;4.352;2023-12-07T04:02:19;2.00;99.90
72440;DHT22;60446;50.752;4.352;2023-12-07T04:04:46;2.00;99.90
72440;DHT22;60446;50.752;4.352;2023-12-07T04:07:13;2.00;99.90
72440;DHT22;60446;50.752;4.352;2023-12-07T04:09:40;2.00;99.90
72440;DHT22;60446;50.752;4.352;2023-12-07T04:12:08;2.00;99.90
72440;DHT22;60446;50.752;4.352;2023-12-07T04:14:35;2.00;99.90
72440;DHT22;60446;50.752;4.352;2023-12-07T04:17:02;1.90;99.90
72440;DHT22;60446;50.752;4.352;2023-12-07T04:19:29;1.90;99.90
72440;DHT22;60446;50.752;4.352;2023-12-07T04:21:56;1.90;99.90
72440;DHT22;60446;50.752;4.352;2023-12-07T04:24:24;1.80;99.90
72440;DHT22;60446;50.752;4.352;2023-12-07T04:26:51;1.70;99.90
72440;DHT22;60446;50.752;4.352;2023-12-07T04:29:18;1.70;99.90
72440;DHT22;60446;50.752;4.352;2023-12-07T04:31:45;1.70;99.90
72440;DHT22;60446;50.752;4.352;2023-12-07T04:34:12;1.70;99.90
72440;DHT22;60446;50.752;4.352;2023-12-07T04:36:40;1.70;99.90
72440;DHT22;60446;50.752;4.352;2023-12-07T04:39:07;1.60;99.90
72440;DHT22;60446;50.752;4.352;2023-12-07T04:41:35;1.70;99.90
72440;DHT22;60446;50.752;4.352;2023-12-07T04:44:02;1.70;99.90
72440;DHT22;60446;50.752;4.352;2023-12-07T04:46:29;1.70;99.90
72440;DHT22;60446;50.752;4.352;2023-12-07T04:48:56;1.60;99.90
72440;DHT22;60446;50.752;4.352;2023-12-07T04:51:24;1.70;99.90
72440;DHT22;60446;50.752;4.352;2023-12-07T04:53:51;1.70;99.90
72440;DHT22;60446;50.752;4.352;2023-12-07T04:56:21;1.80;99.90
72440;DHT22;60446;50.752;4.352;2023-12-07T04:58:49;1.80;99.90
72440;DHT22;60446;50.752;4.352;2023-12-07T05:01:16;1.80;99.90
72440;DHT22;60446;50.752;4.352;2023-12-07T05:03:46;1.80;99.90
72440;DHT22;60446;50.752;4.352;2023-12-07T05:06:13;1.80;99.90
72440;DHT22;60446;50.752;4.352;2023-12-07T05:08:40;1.90;99.90
72440;DHT22;60446;50.752;4.352;2023-12-07T05:11:07;1.80;99.90
72440;DHT22;60446;50.752;4.352;2023-12-07T05:13:34;1.80;99.90
72440;DHT22;60446;50.752;4.352;2023-12-07T05:16:02;1.80;99.90
72440;DHT22;60446;50.752;4.352;2023-12-07T05:18:30;1.90;99.90
72440;DHT22;60446;50.752;4.352;2023-12-07T05:20:58;1.90;99.90
72440;DHT22;60446;50.752;4.352;2023-12-07T05:23:25;1.90;99.90
72440;DHT22;60446;50.752;4.352;2023-12-07T05:25:53;1.90;99.90
72440;DHT22;60446;50.752;4.352;2023-12-07T05:28:21;1.90;99.90
72440;DHT22;60446;50.752;4.352;2023-12-07T05:30:48;1.90;99.90
72440;DHT22;60446;50.752;4.352;2023-12-07T05:33:16;1.80;99.90
72440;DHT22;60446;50.752;4.352;2023-12-07T05:35:43;1.80;99.90
72440;DHT22;60446;50.752;4.352;2023-12-07T05:38:11;1.90;99.90
72440;DHT22;60446;50.752;4.352;2023-12-07T05:40:38;1.80;99.90
72440;DHT22;60446;50.752;4.352;2023-12-07T05:43:05;1.80;99.90
72440;DHT22;60446;50.752;4.352;2023-12-07T05:45:33;1.80;99.90
72440;DHT22;60446;50.752;4.352;2023-12-07T05:48:00;1.70;99.90
72440;DHT22;60446;50.752;4.352;2023-12-07T05:50:27;1.70;99.90
72440;DHT22;60446;50.752;4.352;2023-12-07T05:52:55;1.60;99.90
72440;DHT22;60446;50.752;4.352;2023-12-07T05:55:22;1.50;99.90
72440;DHT22;60446;50.752;4.352;2023-12-07T05:57:50;1.50;99.90
72440;DHT22;60446;50.752;4.352;2023-12-07T06:00:17;1.50;99.90
72440;DHT22;60446;50.752;4.352;2023-12-07T06:02:45;1.40;99.90
72440;DHT22;60446;50.752;4.352;2023-12-07T06:05:13;1.40;99.90
72440;DHT22;60446;50.752;4.352;2023-12-07T06:07:40;1.40;99.90
72440;DHT22;60446;50.752;4.352;2023-12-07T06:10:08;1.40;99.90
72440;DHT22;60446;50.752;4.352;2023-12-07T06:12:36;1.30;99.90
72440;DHT22;60446;50.752;4.352;2023-12-07T06:15:04;1.30;99.90
72440;DHT22;60446;50.752;4.352;2023-12-07T06:17:35;1.30;99.90
72440;DHT22;60446;50.752;4.352;2023-12-07T06:20:02;1.40;99.90
72440;DHT22;60446;50.752;4.352;2023-12-07T06:22:30;1.30;99.90
72440;DHT22;60446;50.752;4.352;2023-12-07T06:24:57;1.30;99.90
72440;DHT22;60446;50.752;4.352;2023-12-07T06:27:24;1.30;99.90
72440;DHT22;60446;50.752;4.352;2023-12-07T06:29:52;1.40;99.90
72440;DHT22;60446;50.752;4.352;2023-12-07T06:32:19;1.40;99.90
72440;DHT22;60446;50.752;4.352;2023-12-07T06:34:46;1.40;99.90
72440;DHT22;60446;50.752;4.352;2023-12-07T06:37:13;1.30;99.90
72440;DHT22;60446;50.752;4.352;2023-12-07T06:39:41;1.30;99.90
72440;DHT22;60446;50.752;4.352;2023-12-07T06:42:08;1.30;99.90
72440;DHT22;60446;50.752;4.352;2023-12-07T06:44:35;1.30;99.90
72440;DHT22;60446;50.752;4.352;2023-12-07T06:47:02;1.30;99.90
72440;DHT22;60446;50.752;4.352;2023-12-07T06:49:31;1.30;99.90
72440;DHT22;60446;50.752;4.352;2023-12-07T06:52:15;1.30;99.90
72440;DHT22;60446;50.752;4.352;2023-12-07T06:54:43;1.30;99.90
72440;DHT22;60446;50.752;4.352;2023-12-07T06:57:10;1.20;99.90
72440;DHT22;60446;50.752;4.352;2023-12-07T06:59:37;1.20;99.90
72440;DHT22;60446;50.752;4.352;2023-12-07T07:02:04;1.20;99.90
72440;DHT22;60446;50.752;4.352;2023-12-07T07:04:31;1.20;99.90
72440;DHT22;60446;50.752;4.352;2023-12-07T07:06:59;1.20;99.90
72440;DHT22;60446;50.752;4.352;2023-12-07T07:09:26;1.20;99.90
72440;DHT22;60446;50.752;4.352;2023-12-07T07:11:53;1.20;99.90
72440;DHT22;60446;50.752;4.352;2023-12-07T07:14:20;1.00;99.90
72440;DHT22;60446;50.752;4.352;2023-12-07T07:16:48;1.00;99.90
72440;DHT22;60446;50.752;4.352;2023-12-07T07:19:15;1.00;99.90
72440;DHT22;60446;50.752;4.352;2023-12-07T07:21:44;1.00;99.90
72440;DHT22;60446;50.752;4.352;2023-12-07T07:24:11;1.00;99.90
72440;DHT22;60446;50.752;4.352;2023-12-07T07:26:38;1.00;99.90
72440;DHT22;60446;50.752;4.352;2023-12-07T07:29:06;1.00;99.90
72440;DHT22;60446;50.752;4.352;2023-12-07T07:31:36;1.10;99.90
72440;DHT22;60446;50.752;4.352;2023-12-07T07:34:04;1.00;99.90
72440;DHT22;60446;50.752;4.352;2023-12-07T07:36:35;1.00;99.90
72440;DHT22;60446;50.752;4.352;2023-12-07T07:39:02;1.00;99.90
72440;DHT22;60446;50.752;4.352;2023-12-07T07:41:32;1.10;99.90
72440;DHT22;60446;50.752;4.352;2023-12-07T07:43:59;1.00;99.90
72440;DHT22;60446;50.752;4.352;2023-12-07T07:46:29;1.00;99.90
72440;DHT22;60446;50.752;4.352;2023-12-07T07:48:56;1.00;99.90
72440;DHT22;60446;50.752;4.352;2023-12-07T07:51:23;1.00;99.90
72440;DHT22;60446;50.752;4.352;2023-12-07T07:53:51;0.90;99.90
72440;DHT22;60446;50.752;4.352;2023-12-07T07:56:18;1.00;99.90
72440;DHT22;60446;50.752;4.352;2023-12-07T07:58:45;1.00;99.90
72440;DHT22;60446;50.752;4.352;2023-12-07T08:01:13;1.00;99.90
72440;DHT22;60446;50.752;4.352;2023-12-07T08:03:42;1.00;99.90
72440;DHT22;60446;50.752;4.352;2023-12-07T08:06:09;1.00;99.90
72440;DHT22;60446;50.752;4.352;2023-12-07T08:08:37;1.10;99.90
72440;DHT22;60446;50.752;4.352;2023-12-07T08:11:04;1.10;99.90
72440;DHT22;60446;50.752;4.352;2023-12-07T08:13:32;1.10;99.90
72440;DHT22;60446;50.752;4.352;2023-12-07T08:15:59;1.10;99.90
72440;DHT22;60446;50.752;4.352;2023-12-07T08:18:26;1.20;99.90
72440;DHT22;60446;50.752;4.352;2023-12-07T08:20:54;1.20;99.90
72440;DHT22;60446;50.752;4.352;2023-12-07T08:23:21;1.30;99.90
72440;DHT22;60446;50.752;4.352;2023-12-07T08:25:49;1.30;99.90
72440;DHT22;60446;50.752;4.352;2023-12-07T08:28:16;1.30;99.90
72440;DHT22;60446;50.752;4.352;2023-12-07T08:30:44;1.40;99.90
72440;DHT22;60446;50.752;4.352;2023-12-07T08:33:11;1.50;99.90
72440;DHT22;60446;50.752;4.352;2023-12-07T08:35:39;1.60;99.90
72440;DHT22;60446;50.752;4.352;2023-12-07T08:38:06;1.60;99.90
72440;DHT22;60446;50.752;4.352;2023-12-07T08:40:33;1.70;99.90
72440;DHT22;60446;50.752;4.352;2023-12-07T08:43:01;1.70;99.90
72440;DHT22;60446;50.752;4.352;2023-12-07T08:45:29;1.80;99.90
72440;DHT22;60446;50.752;4.352;2023-12-07T08:47:57;1.90;99.90
72440;DHT22;60446;50.752;4.352;2023-12-07T08:50:24;1.80;99.90
72440;DHT22;60446;50.752;4.352;2023-12-07T08:52:51;1.90;99.90
72440;DHT22;60446;50.752;4.352;2023-12-07T08:55:25;2.00;99.90
72440;DHT22;60446;50.752;4.352;2023-12-07T08:57:53;2.00;99.90
72440;DHT22;60446;50.752;4.352;2023-12-07T09:00:21;1.90;99.90
72440;DHT22;60446;50.752;4.352;2023-12-07T09:02:51;2.00;99.90
72440;DHT22;60446;50.752;4.352;2023-12-07T09:05:18;2.00;99.90
72440;DHT22;60446;50.752;4.352;2023-12-07T09:07:46;2.00;99.90
72440;DHT22;60446;50.752;4.352;2023-12-07T09:10:14;2.00;99.90
72440;DHT22;60446;50.752;4.352;2023-12-07T09:12:41;2.10;99.90
72440;DHT22;60446;50.752;4.352;2023-12-07T09:15:09;2.20;99.90
72440;DHT22;60446;50.752;4.352;2023-12-07T09:17:38;2.20;99.90
72440;DHT22;60446;50.752;4.352;2023-12-07T09:20:10;2.20;99.90
72440;DHT22;60446;50.752;4.352;2023-12-07T09:22:45;2.20;99.90
72440;DHT22;60446;50.752;4.352;2023-12-07T09:25:15;2.20;99.90
72440;DHT22;60446;50.752;4.352;2023-12-07T09:27:44;2.10;99.90
72440;DHT22;60446;50.752;4.352;2023-12-07T09:30:11;2.20;99.90
72440;DHT22;60446;50.752;4.352;2023-12-07T09:32:40;2.20;99.90
72440;DHT22;60446;50.752;4.352;2023-12-07T09:35:12;2.20;99.90
72440;DHT22;60446;50.752;4.352;2023-12-07T09:37:47;2.30;99.90
72440;DHT22;60446;50.752;4.352;2023-12-07T09:40:20;2.30;99.90
72440;DHT22;60446;50.752;4.352;2023-12-07T09:42:50;2.40;99.90
72440;DHT22;60446;50.752;4.352;2023-12-07T09:45:18;2.40;99.90
72440;DHT22;60446;50.752;4.352;2023-12-07T09:47:48;2.50;99.90
72440;DHT22;60446;50.752;4.352;2023-12-07T09:50:21;2.60;99.90
72440;DHT22;60446;50.752;4.352;2023-12-07T09:52:51;2.70;99.90
72440;DHT22;60446;50.752;4.352;2023-12-07T09:55:33;2.90;99.90
72440;DHT22;60446;50.752;4.352;2023-12-07T09:58:04;3.10;99.90
72440;DHT22;60446;50.752;4.352;2023-12-07T10:00:34;3.10;99.90
72440;DHT22;60446;50.752;4.352;2023-12-07T10:03:02;3.20;99.90
72440;DHT22;60446;50.752;4.352;2023-12-07T10:05:30;3.20;99.90
72440;DHT22;60446;50.752;4.352;2023-12-07T10:07:58;3.20;99.90
72440;DHT22;60446;50.752;4.352;2023-12-07T10:10:25;3.10;99.90
72440;DHT22;60446;50.752;4.352;2023-12-07T10:12:54;3.10;99.90
72440;DHT22;60446;50.752;4.352;2023-12-07T10:15:26;3.10;99.90
72440;DHT22;60446;50.752;4.352;2023-12-07T10:17:59;3.10;99.90
72440;DHT22;60446;50.752;4.352;2023-12-07T10:20:28;3.20;99.90
72440;DHT22;60446;50.752;4.352;2023-12-07T10:23:04;3.20;99.90
72440;DHT22;60446;50.752;4.352;2023-12-07T10:25:38;3.30;99.90
72440;DHT22;60446;50.752;4.352;2023-12-07T10:28:07;3.50;99.90
72440;DHT22;60446;50.752;4.352;2023-12-07T10:30:37;3.50;99.90
72440;DHT22;60446;50.752;4.352;2023-12-07T10:33:09;3.60;99.90
72440;DHT22;60446;50.752;4.352;2023-12-07T10:35:43;3.60;99.90
72440;DHT22;60446;50.752;4.352;2023-12-07T10:38:11;3.60;99.90
72440;DHT22;60446;50.752;4.352;2023-12-07T10:40:41;3.60;99.90
72440;DHT22;60446;50.752;4.352;2023-12-07T10:43:08;3.70;99.90
72440;DHT22;60446;50.752;4.352;2023-12-07T10:45:36;3.50;99.90
72440;DHT22;60446;50.752;4.352;2023-12-07T10:48:09;3.50;99.90
72440;DHT22;60446;50.752;4.352;2023-12-07T10:50:46;3.60;99.90
72440;DHT22;60446;50.752;4.352;2023-12-07T10:53:37;3.50;99.90
72440;DHT22;60446;50.752;4.352;2023-12-07T10:56:14;3.60;99.90
72440;DHT22;60446;50.752;4.352;2023-12-07T10:58:43;3.60;99.90
72440;DHT22;60446;50.752;4.352;2023-12-07T11:01:13;3.70;99.90
72440;DHT22;60446;50.752;4.352;2023-12-07T11:03:43;3.80;99.90
72440;DHT22;60446;50.752;4.352;2023-12-07T11:06:10;3.80;99.90
72440;DHT22;60446;50.752;4.352;2023-12-07T11:08:49;3.90;99.90
72440;DHT22;60446;50.752;4.352;2023-12-07T11:14:11;4.00;99.90
72440;DHT22;60446;50.752;4.352;2023-12-07T11:16:42;4.10;99.90
72440;DHT22;60446;50.752;4.352;2023-12-07T11:22:02;4.20;99.90
72440;DHT22;60446;50.752;4.352;2023-12-07T11:24:30;4.20;99.90
72440;DHT22;60446;50.752;4.352;2023-12-07T11:26:58;4.20;99.90
72440;DHT22;60446;50.752;4.352;2023-12-07T11:29:28;4.20;99.10
72440;DHT22;60446;50.752;4.352;2023-12-07T11:31:59;4.10;99.90
72440;DHT22;60446;50.752;4.352;2023-12-07T11:34:39;4.20;99.90
72440;DHT22;60446;50.752;4.352;2023-12-07T11:37:08;4.30;99.40
72440;DHT22;60446;50.752;4.352;2023-12-07T11:39:37;4.30;99.30
72440;DHT22;60446;50.752;4.352;2023-12-07T11:42:19;4.20;98.70
72440;DHT22;60446;50.752;4.352;2023-12-07T11:44:50;4.20;98.10
72440;DHT22;60446;50.752;4.352;2023-12-07T11:47:19;4.20;98.70
72440;DHT22;60446;50.752;4.352;2023-12-07T11:49:48;4.10;97.80
72440;DHT22;60446;50.752;4.352;2023-12-07T11:52:19;4.20;97.20
72440;DHT22;60446;50.752;4.352;2023-12-07T11:54:48;4.10;97.40
72440;DHT22;60446;50.752;4.352;2023-12-07T11:57:19;4.10;97.80
72440;DHT22;60446;50.752;4.352;2023-12-07T11:59:48;4.20;97.60
72440;DHT22;60446;50.752;4.352;2023-12-07T12:02:19;4.20;98.20
72440;DHT22;60446;50.752;4.352;2023-12-07T12:05:00;4.10;97.20
72440;DHT22;60446;50.752;4.352;2023-12-07T12:07:40;4.20;98.30
72440;DHT22;60446;50.752;4.352;2023-12-07T12:10:20;4.10;97.20
72440;DHT22;60446;50.752;4.352;2023-12-07T12:12:53;4.10;96.90
72440;DHT22;60446;50.752;4.352;2023-12-07T12:15:26;4.10;96.50
72440;DHT22;60446;50.752;4.352;2023-12-07T12:17:59;4.10;95.50
72440;DHT22;60446;50.752;4.352;2023-12-07T12:20:28;4.10;95.60
72440;DHT22;60446;50.752;4.352;2023-12-07T12:22:58;4.20;96.50
72440;DHT22;60446;50.752;4.352;2023-12-07T12:25:39;4.20;94.90
72440;DHT22;60446;50.752;4.352;2023-12-07T12:28:16;4.20;95.60
72440;DHT22;60446;50.752;4.352;2023-12-07T12:30:54;4.20;93.90
72440;DHT22;60446;50.752;4.352;2023-12-07T12:33:37;4.20;94.20
72440;DHT22;60446;50.752;4.352;2023-12-07T12:36:11;4.20;93.50
72440;DHT22;60446;50.752;4.352;2023-12-07T12:38:48;4.20;94.50
72440;DHT22;60446;50.752;4.352;2023-12-07T12:41:24;4.20;94.80
72440;DHT22;60446;50.752;4.352;2023-12-07T12:44:01;4.20;94.10
72440;DHT22;60446;50.752;4.352;2023-12-07T12:46:28;4.10;93.90
72440;DHT22;60446;50.752;4.352;2023-12-07T12:49:00;4.20;95.90
72440;DHT22;60446;50.752;4.352;2023-12-07T12:51:34;4.20;95.50
72440;DHT22;60446;50.752;4.352;2023-12-07T12:54:13;4.30;95.00
72440;DHT22;60446;50.752;4.352;2023-12-07T12:56:55;4.30;93.70
72440;DHT22;60446;50.752;4.352;2023-12-07T12:59:35;4.30;93.00
72440;DHT22;60446;50.752;4.352;2023-12-07T13:02:36;4.40;93.60
72440;DHT22;60446;50.752;4.352;2023-12-07T13:05:29;4.30;92.90
72440;DHT22;60446;50.752;4.352;2023-12-07T13:08:18;4.20;92.10
72440;DHT22;60446;50.752;4.352;2023-12-07T13:11:07;4.20;92.20
72440;DHT22;60446;50.752;4.352;2023-12-07T13:14:02;4.20;92.20
72440;DHT22;60446;50.752;4.352;2023-12-07T13:17:00;4.20;92.20
72440;DHT22;60446;50.752;4.352;2023-12-07T13:19:53;4.20;91.80
72440;DHT22;60446;50.752;4.352;2023-12-07T13:22:45;4.10;92.30
72440;DHT22;60446;50.752;4.352;2023-12-07T13:25:36;4.10;92.20
72440;DHT22;60446;50.752;4.352;2023-12-07T13:28:10;4.00;92.70
72440;DHT22;60446;50.752;4.352;2023-12-07T13:30:59;4.10;93.40
72440;DHT22;60446;50.752;4.352;2023-12-07T13:33:47;4.10;91.90
72440;DHT22;60446;50.752;4.352;2023-12-07T13:36:44;4.20;91.70
72440;DHT22;60446;50.752;4.352;2023-12-07T13:39:42;4.10;92.70
72440;DHT22;60446;50.752;4.352;2023-12-07T13:42:14;4.10;91.40
72440;DHT22;60446;50.752;4.352;2023-12-07T13:45:07;4.00;91.30
72440;DHT22;60446;50.752;4.352;2023-12-07T13:48:01;4.00;91.80
72440;DHT22;60446;50.752;4.352;2023-12-07T13:50:33;4.00;92.50
72440;DHT22;60446;50.752;4.352;2023-12-07T13:53:25;4.00;91.90
72440;DHT22;60446;50.752;4.352;2023-12-07T13:56:14;3.90;91.10
72440;DHT22;60446;50.752;4.352;2023-12-07T13:59:00;3.90;92.60
72440;DHT22;60446;50.752;4.352;2023-12-07T14:02:20;3.90;92.10
72440;DHT22;60446;50.752;4.352;2023-12-07T14:04:54;3.90;91.70
72440;DHT22;60446;50.752;4.352;2023-12-07T14:07:26;3.90;91.90
72440;DHT22;60446;50.752;4.352;2023-12-07T14:09:59;3.90;91.50
72440;DHT22;60446;50.752;4.352;2023-12-07T14:12:42;3.90;92.40
72440;DHT22;60446;50.752;4.352;2023-12-07T14:15:27;3.80;92.40
72440;DHT22;60446;50.752;4.352;2023-12-07T14:18:11;3.80;92.00
72440;DHT22;60446;50.752;4.352;2023-12-07T14:20:49;3.80;92.00
72440;DHT22;60446;50.752;4.352;2023-12-07T14:23:43;3.70;91.70
72440;DHT22;60446;50.752;4.352;2023-12-07T14:26:22;3.70;92.60
72440;DHT22;60446;50.752;4.352;2023-12-07T14:29:10;3.70;92.80
72440;DHT22;60446;50.752;4.352;2023-12-07T14:32:01;3.60;92.40
72440;DHT22;60446;50.752;4.352;2023-12-07T14:34:37;3.70;91.50
72440;DHT22;60446;50.752;4.352;2023-12-07T14:37:20;3.60;92.40
72440;DHT22;60446;50.752;4.352;2023-12-07T14:40:00;3.70;91.00
72440;DHT22;60446;50.752;4.352;2023-12-07T14:42:33;3.70;91.50
72440;DHT22;60446;50.752;4.352;2023-12-07T14:45:10;3.70;91.80
72440;DHT22;60446;50.752;4.352;2023-12-07T14:47:43;3.70;92.00
72440;DHT22;60446;50.752;4.352;2023-12-07T14:50:18;3.60;91.30
72440;DHT22;60446;50.752;4.352;2023-12-07T14:53:16;3.60;91.80
72440;DHT22;60446;50.752;4.352;2023-12-07T14:55:50;3.60;92.70
72440;DHT22;60446;50.752;4.352;2023-12-07T14:58:32;3.60;92.10
72440;DHT22;60446;50.752;4.352;2023-12-07T15:01:14;3.60;91.90
72440;DHT22;60446;50.752;4.352;2023-12-07T15:03:49;3.60;92.60
72440;DHT22;60446;50.752;4.352;2023-12-07T15:06:31;3.60;91.90
72440;DHT22;60446;50.752;4.352;2023-12-07T15:09:02;3.60;92.70
72440;DHT22;60446;50.752;4.352;2023-12-07T15:11:42;3.60;92.30
72440;DHT22;60446;50.752;4.352;2023-12-07T15:14:17;3.70;91.10
72440;DHT22;60446;50.752;4.352;2023-12-07T15:17:12;3.70;91.40
72440;DHT22;60446;50.752;4.352;2023-12-07T15:19:45;3.70;91.30
72440;DHT22;60446;50.752;4.352;2023-12-07T15:22:23;3.60;90.80
72440;DHT22;60446;50.752;4.352;2023-12-07T15:24:55;3.60;91.80
72440;DHT22;60446;50.752;4.352;2023-12-07T15:27:31;3.50;91.20
72440;DHT22;60446;50.752;4.352;2023-12-07T15:29:59;3.50;90.50
72440;DHT22;60446;50.752;4.352;2023-12-07T15:32:31;3.50;90.00
72440;DHT22;60446;50.752;4.352;2023-12-07T15:35:08;3.50;90.90
72440;DHT22;60446;50.752;4.352;2023-12-07T15:37:46;3.50;90.90
72440;DHT22;60446;50.752;4.352;2023-12-07T15:40:19;3.40;90.80
72440;DHT22;60446;50.752;4.352;2023-12-07T15:42:58;3.40;90.40
72440;DHT22;60446;50.752;4.352;2023-12-07T15:45:28;3.30;90.30
72440;DHT22;60446;50.752;4.352;2023-12-07T15:47:59;3.30;90.60
72440;DHT22;60446;50.752;4.352;2023-12-07T15:50:33;3.30;90.30
72440;DHT22;60446;50.752;4.352;2023-12-07T15:53:01;3.20;90.00
72440;DHT22;60446;50.752;4.352;2023-12-07T15:55:39;3.20;90.40
72440;DHT22;60446;50.752;4.352;2023-12-07T15:58:13;3.20;90.00
72440;DHT22;60446;50.752;4.352;2023-12-07T16:00:48;3.20;89.30
72440;DHT22;60446;50.752;4.352;2023-12-07T16:03:21;3.10;89.20
72440;DHT22;60446;50.752;4.352;2023-12-07T16:05:51;3.10;89.10
72440;DHT22;60446;50.752;4.352;2023-12-07T16:08:19;3.10;88.40
72440;DHT22;60446;50.752;4.352;2023-12-07T16:10:47;3.20;88.80
72440;DHT22;60446;50.752;4.352;2023-12-07T16:13:19;3.10;87.90
72440;DHT22;60446;50.752;4.352;2023-12-07T16:15:53;3.10;88.20